createdAt,value
2018-08-29T00:00:50.656Z,17.09
2018-08-29T00:01:50.634Z,17.16
2018-08-29T00:02:50.590Z,17.16
2018-08-29T00:03:50.557Z,17.15
2018-08-29T00:04:50.520Z,17.23
2018-08-29T00:05:50.485Z,17.16
2018-08-29T00:06:50.450Z,17.26
2018-08-29T00:07:50.413Z,17.19
2018-08-29T00:08:50.384Z,17.22
2018-08-29T00:09:50.349Z,17.23
2018-08-29T00:10:50.322Z,17.26
2018-08-29T00:11:50.285Z,17.24
2018-08-29T00:12:50.249Z,17.23
2018-08-29T00:13:50.212Z,17.31
2018-08-29T00:14:50.173Z,17.26
2018-08-29T00:15:50.146Z,17.30
2018-08-29T00:16:50.114Z,17.27
2018-08-29T00:17:50.072Z,17.26
2018-08-29T00:18:50.055Z,17.30
2018-08-29T00:19:50.003Z,17.27
2018-08-29T00:20:49.979Z,17.23
2018-08-29T00:21:49.940Z,17.29
2018-08-29T00:22:49.904Z,17.27
2018-08-29T00:23:49.869Z,17.27
2018-08-29T00:24:49.833Z,17.30
2018-08-29T00:25:49.804Z,17.22
2018-08-29T00:26:49.764Z,17.24
2018-08-29T00:27:49.728Z,17.22
2018-08-29T00:28:49.697Z,17.22
2018-08-29T00:29:49.665Z,17.26
2018-08-29T00:30:49.634Z,17.29
2018-08-29T00:31:49.603Z,17.22
2018-08-29T00:32:49.560Z,17.24
2018-08-29T00:33:49.524Z,17.24
2018-08-29T00:34:49.494Z,17.20
2018-08-29T00:35:49.461Z,17.27
2018-08-29T00:36:49.420Z,17.31
2018-08-29T00:37:49.384Z,17.38
2018-08-29T00:38:49.346Z,17.38
2018-08-29T00:39:49.315Z,17.39
2018-08-29T00:40:49.280Z,17.36
2018-08-29T00:41:49.252Z,17.30
2018-08-29T00:42:49.217Z,17.34
2018-08-29T00:43:49.184Z,17.36
2018-08-29T00:44:49.144Z,17.38
2018-08-29T00:45:49.108Z,17.48
2018-08-29T00:46:49.072Z,17.39
2018-08-29T00:47:49.044Z,17.38
2018-08-29T00:48:49.009Z,17.34
2018-08-29T00:49:48.970Z,17.38
2018-08-29T00:50:48.936Z,17.46
2018-08-29T00:51:48.910Z,17.46
2018-08-29T00:52:48.872Z,17.52
2018-08-29T00:53:48.837Z,17.49
2018-08-29T00:54:48.804Z,17.46
2018-08-29T00:55:48.770Z,17.34
2018-08-29T00:56:48.734Z,17.56
2018-08-29T00:57:48.699Z,17.36
2018-08-29T00:58:48.667Z,17.36
2018-08-29T00:59:48.627Z,17.38
2018-08-29T01:00:48.597Z,17.38
2018-08-29T01:01:48.564Z,17.36
2018-08-29T01:02:48.527Z,17.38
2018-08-29T01:03:48.488Z,17.36
2018-08-29T01:04:48.455Z,17.36
2018-08-29T01:05:48.423Z,17.49
2018-08-29T01:06:48.389Z,17.36
2018-08-29T01:07:48.356Z,17.39
2018-08-29T01:08:48.320Z,17.33
2018-08-29T01:09:48.285Z,17.41
2018-08-29T01:10:48.247Z,17.44
2018-08-29T01:11:48.213Z,17.36
2018-08-29T01:12:48.182Z,17.34
2018-08-29T01:13:48.153Z,17.39
2018-08-29T01:14:48.116Z,17.36
2018-08-29T01:15:48.084Z,17.36
2018-08-29T01:16:48.046Z,17.36
2018-08-29T01:17:48.007Z,17.41
2018-08-29T01:18:47.977Z,17.34
2018-08-29T01:19:47.946Z,17.31
2018-08-29T01:20:47.906Z,17.20
2018-08-29T01:21:47.869Z,17.27
2018-08-29T01:22:47.835Z,17.24
2018-08-29T01:23:47.799Z,17.29
2018-08-29T01:24:47.767Z,17.29
2018-08-29T01:25:47.733Z,17.23
2018-08-29T01:26:47.702Z,17.24
2018-08-29T01:27:47.671Z,17.15
2018-08-29T01:28:47.629Z,17.23
2018-08-29T01:29:47.593Z,17.09
2018-08-29T01:30:47.558Z,17.12
2018-08-29T01:31:47.525Z,17.15
2018-08-29T01:32:47.495Z,17.06
2018-08-29T01:33:47.459Z,17.08
2018-08-29T01:34:47.425Z,17.09
2018-08-29T01:35:47.386Z,17.05
2018-08-29T01:36:47.356Z,17.19
2018-08-29T01:37:47.320Z,17.14
2018-08-29T01:38:47.289Z,17.19
2018-08-29T01:39:47.252Z,17.20
2018-08-29T01:40:47.222Z,17.14
2018-08-29T01:41:47.180Z,17.14
2018-08-29T01:42:47.142Z,17.06
2018-08-29T01:43:47.107Z,17.14
2018-08-29T01:44:47.076Z,17.11
2018-08-29T01:45:47.042Z,17.15
2018-08-29T01:46:47.009Z,17.27
2018-08-29T01:47:46.981Z,17.24
2018-08-29T01:48:46.942Z,17.26
2018-08-29T01:49:46.903Z,17.26
2018-08-29T01:50:46.867Z,17.29
2018-08-29T01:51:46.839Z,17.22
2018-08-29T01:52:46.802Z,17.16
2018-08-29T01:53:46.771Z,17.19
2018-08-29T01:54:46.728Z,17.24
2018-08-29T01:55:46.693Z,17.20
2018-08-29T01:56:46.667Z,17.09
2018-08-29T01:57:46.629Z,17.14
2018-08-29T01:58:46.597Z,17.14
2018-08-29T01:59:46.563Z,17.20
2018-08-29T02:00:46.525Z,17.11
2018-08-29T02:01:46.489Z,17.05
2018-08-29T02:02:46.451Z,17.04
2018-08-29T02:03:46.417Z,17.02
2018-08-29T02:04:46.384Z,17.04
2018-08-29T02:05:46.359Z,17.12
2018-08-29T02:06:46.320Z,17.06
2018-08-29T02:07:46.278Z,17.04
2018-08-29T02:08:46.247Z,16.96
2018-08-29T02:09:46.213Z,16.93
2018-08-29T02:10:46.191Z,16.90
2018-08-29T02:11:46.145Z,17.02
2018-08-29T02:12:46.112Z,16.93
2018-08-29T02:13:46.073Z,16.97
2018-08-29T02:14:46.036Z,16.90
2018-08-29T02:15:46.001Z,16.93
2018-08-29T02:16:45.969Z,17.02
2018-08-29T02:17:45.938Z,16.94
2018-08-29T02:18:45.903Z,17.02
2018-08-29T02:19:45.869Z,16.87
2018-08-29T02:20:45.832Z,16.86
2018-08-29T02:21:45.796Z,16.90
2018-08-29T02:22:45.766Z,16.87
2018-08-29T02:23:45.733Z,16.83
2018-08-29T02:24:45.704Z,16.89
2018-08-29T02:25:45.657Z,16.84
2018-08-29T02:26:45.620Z,16.86
2018-08-29T02:27:45.585Z,16.90
2018-08-29T02:28:45.553Z,16.87
2018-08-29T02:29:45.522Z,16.89
2018-08-29T02:30:45.488Z,16.86
2018-08-29T02:31:45.455Z,16.91
2018-08-29T02:32:45.422Z,16.90
2018-08-29T02:33:45.381Z,16.89
2018-08-29T02:34:45.345Z,16.83
2018-08-29T02:35:45.313Z,16.86
2018-08-29T02:36:45.281Z,16.87
2018-08-29T02:37:45.246Z,16.83
2018-08-29T02:38:45.221Z,16.83
2018-08-29T02:39:45.172Z,16.81
2018-08-29T02:40:45.140Z,16.72
2018-08-29T02:41:45.108Z,16.72
2018-08-29T02:42:45.073Z,16.69
2018-08-29T02:43:45.039Z,16.76
2018-08-29T02:44:45.002Z,16.76
2018-08-29T02:45:44.969Z,16.78
2018-08-29T02:46:44.929Z,16.83
2018-08-29T02:47:44.895Z,16.79
2018-08-29T02:48:44.864Z,16.79
2018-08-29T02:49:44.831Z,16.81
2018-08-29T02:50:44.800Z,16.75
2018-08-29T02:51:44.764Z,16.81
2018-08-29T02:52:44.725Z,16.66
2018-08-29T02:53:44.688Z,16.64
2018-08-29T02:54:44.650Z,16.71
2018-08-29T02:55:44.624Z,16.61
2018-08-29T02:56:44.587Z,16.57
2018-08-29T02:57:44.552Z,16.56
2018-08-29T02:58:44.512Z,16.54
2018-08-29T02:59:44.480Z,16.57
2018-08-29T03:00:44.447Z,16.51
2018-08-29T03:01:44.415Z,16.56
2018-08-29T03:02:44.382Z,16.61
2018-08-29T03:03:44.369Z,16.51
2018-08-29T03:04:44.314Z,16.68
2018-08-29T03:05:44.276Z,16.68
2018-08-29T03:06:44.235Z,16.66
2018-08-29T03:07:44.200Z,16.72
2018-08-29T03:08:44.168Z,16.72
2018-08-29T03:09:44.141Z,16.64
2018-08-29T03:10:44.108Z,16.68
2018-08-29T03:11:44.071Z,16.71
2018-08-29T03:12:44.034Z,16.64
2018-08-29T03:13:43.997Z,16.69
2018-08-29T03:14:43.965Z,16.71
2018-08-29T03:15:43.935Z,16.64
2018-08-29T03:16:43.899Z,16.60
2018-08-29T03:17:43.856Z,16.60
2018-08-29T03:18:43.819Z,16.64
2018-08-29T03:19:43.833Z,16.75
2018-08-29T03:20:43.752Z,16.61
2018-08-29T03:21:43.728Z,16.66
2018-08-29T03:22:43.686Z,16.68
2018-08-29T03:23:43.652Z,16.56
2018-08-29T03:24:43.615Z,16.60
2018-08-29T03:25:43.578Z,16.56
2018-08-29T03:26:43.544Z,16.58
2018-08-29T03:27:43.518Z,16.66
2018-08-29T03:28:43.479Z,16.56
2018-08-29T03:29:43.448Z,16.56
2018-08-29T03:30:43.403Z,16.54
2018-08-29T03:31:43.369Z,16.50
2018-08-29T03:32:43.337Z,16.53
2018-08-29T03:33:43.305Z,16.51
2018-08-29T03:34:43.269Z,16.49
2018-08-29T03:35:43.234Z,16.46
2018-08-29T03:36:43.201Z,16.49
2018-08-29T03:37:43.172Z,16.50
2018-08-29T03:38:43.126Z,16.41
2018-08-29T03:39:43.093Z,16.47
2018-08-29T03:40:43.061Z,16.42
2018-08-29T03:41:43.028Z,16.51
2018-08-29T03:42:43.036Z,16.43
2018-08-29T03:43:42.951Z,16.42
2018-08-29T03:44:42.920Z,16.43
2018-08-29T03:45:42.886Z,16.43
2018-08-29T03:46:42.853Z,16.32
2018-08-29T03:47:42.821Z,16.35
2018-08-29T03:48:42.783Z,16.39
2018-08-29T03:49:42.745Z,16.35
2018-08-29T03:50:42.712Z,16.29
2018-08-29T03:51:42.675Z,16.35
2018-08-29T03:52:42.638Z,16.35
2018-08-29T03:53:42.631Z,16.35
2018-08-29T04:06:43.932Z,16.39
2018-08-29T04:07:43.864Z,16.38
2018-08-29T04:08:43.829Z,16.32
2018-08-29T04:09:43.790Z,16.43
2018-08-29T04:10:43.746Z,16.42
2018-08-29T04:11:43.710Z,16.49
2018-08-29T04:12:43.666Z,16.49
2018-08-29T04:13:43.631Z,16.47
2018-08-29T04:14:43.595Z,16.47
2018-08-29T04:15:43.565Z,16.56
2018-08-29T04:16:43.518Z,16.47
2018-08-29T04:17:43.483Z,16.50
2018-08-29T04:18:43.452Z,16.57
2018-08-29T04:19:43.414Z,16.66
2018-08-29T04:20:43.384Z,16.68
2018-08-29T04:21:43.371Z,16.68
2018-08-29T04:22:43.306Z,16.74
2018-08-29T04:23:43.271Z,16.74
2018-08-29T04:24:43.240Z,16.75
2018-08-29T04:25:43.201Z,16.72
2018-08-29T04:26:43.167Z,16.75
2018-08-29T04:27:43.134Z,16.81
2018-08-29T04:28:43.088Z,16.76
2018-08-29T04:29:43.055Z,16.74
2018-08-29T04:30:43.019Z,16.75
2018-08-29T04:31:42.982Z,16.74
2018-08-29T04:32:42.952Z,16.78
2018-08-29T04:33:42.914Z,16.78
2018-08-29T04:34:42.880Z,16.78
2018-08-29T04:35:42.849Z,16.81
2018-08-29T04:36:42.810Z,16.76
2018-08-29T04:37:42.780Z,16.72
2018-08-29T04:38:42.739Z,16.69
2018-08-29T04:39:42.706Z,16.74
2018-08-29T04:40:42.664Z,16.81
2018-08-29T04:41:42.631Z,16.74
2018-08-29T04:42:42.596Z,16.66
2018-08-29T04:43:42.574Z,16.64
2018-08-29T04:44:42.529Z,16.69
2018-08-29T04:45:42.496Z,16.66
2018-08-29T04:46:42.460Z,16.65
2018-08-29T04:47:42.430Z,16.68
2018-08-29T04:48:42.383Z,16.76
2018-08-29T04:49:42.351Z,16.64
2018-08-29T04:50:42.318Z,16.65
2018-08-29T04:51:42.279Z,16.66
2018-08-29T04:52:42.253Z,16.65
2018-08-29T04:53:42.215Z,16.64
2018-08-29T04:54:42.176Z,16.76
2018-08-29T04:55:42.141Z,16.68
2018-08-29T04:56:42.109Z,16.72
2018-08-29T04:57:42.074Z,16.66
2018-08-29T04:58:42.042Z,16.65
2018-08-29T04:59:42.006Z,16.66
2018-08-29T05:00:41.964Z,16.65
2018-08-29T05:01:41.931Z,16.68
2018-08-29T05:02:41.897Z,16.65
2018-08-29T05:03:41.862Z,16.60
2018-08-29T05:04:41.830Z,16.51
2018-08-29T05:05:41.794Z,16.56
2018-08-29T05:06:41.760Z,16.56
2018-08-29T05:07:41.728Z,16.43
2018-08-29T05:08:41.686Z,16.56
2018-08-29T05:09:41.669Z,16.57
2018-08-29T05:10:41.625Z,16.57
2018-08-29T05:11:41.588Z,16.54
2018-08-29T05:12:41.545Z,16.64
2018-08-29T05:13:41.512Z,16.56
2018-08-29T05:14:41.477Z,16.64
2018-08-29T05:15:41.440Z,16.61
2018-08-29T05:16:41.412Z,16.56
2018-08-29T05:17:41.376Z,16.66
2018-08-29T05:18:41.410Z,16.65
2018-08-29T05:19:41.316Z,16.58
2018-08-29T05:20:41.266Z,16.57
2018-08-29T05:21:41.238Z,16.53
2018-08-29T05:22:41.203Z,16.56
2018-08-29T05:23:41.163Z,16.65
2018-08-29T05:24:41.168Z,16.68
2018-08-29T05:25:41.097Z,16.60
2018-08-29T05:26:41.067Z,16.60
2018-08-29T05:27:41.023Z,16.60
2018-08-29T05:28:40.994Z,16.69
2018-08-29T05:29:40.956Z,16.75
2018-08-29T05:30:40.928Z,16.79
2018-08-29T05:31:40.890Z,16.78
2018-08-29T05:32:40.851Z,16.83
2018-08-29T05:33:40.822Z,16.93
2018-08-29T05:34:40.840Z,16.89
2018-08-29T05:35:40.756Z,16.86
2018-08-29T05:36:40.715Z,16.94
2018-08-29T05:37:40.679Z,17.06
2018-08-29T05:38:40.645Z,17.01
2018-08-29T05:39:40.611Z,17.14
2018-08-29T05:40:40.571Z,17.11
2018-08-29T05:41:40.540Z,17.27
2018-08-29T05:42:40.506Z,17.24
2018-08-29T05:43:40.475Z,17.29
2018-08-29T05:44:40.434Z,17.33
2018-08-29T05:45:40.401Z,17.36
2018-08-29T05:46:40.366Z,17.38
2018-08-29T05:47:40.346Z,17.56
2018-08-29T05:48:40.305Z,17.63
2018-08-29T05:49:40.271Z,17.49
2018-08-29T05:50:40.229Z,17.60
2018-08-29T05:51:40.197Z,17.64
2018-08-29T05:52:40.160Z,17.72
2018-08-29T05:53:40.124Z,17.67
2018-08-29T05:54:40.092Z,17.71
2018-08-29T05:55:40.054Z,17.72
2018-08-29T05:56:40.027Z,17.74
2018-08-29T05:57:39.989Z,17.74
2018-08-29T05:58:39.953Z,17.83
2018-08-29T05:59:39.921Z,17.80
2018-08-29T06:00:39.887Z,17.85
2018-08-29T06:01:39.874Z,17.87
2018-08-29T06:02:39.820Z,17.90
2018-08-29T06:03:39.787Z,17.92
2018-08-29T06:04:39.751Z,18.03
2018-08-29T06:05:39.713Z,18.01
2018-08-29T06:06:39.680Z,18.10
2018-08-29T06:07:39.644Z,18.08
2018-08-29T06:08:39.616Z,18.13
2018-08-29T06:09:39.582Z,18.10
2018-08-29T06:10:39.546Z,18.19
2018-08-29T06:11:39.520Z,18.23
2018-08-29T06:12:39.475Z,18.25
2018-08-29T06:13:39.444Z,18.38
2018-08-29T06:14:39.412Z,18.43
2018-08-29T06:15:39.378Z,18.49
2018-08-29T06:16:39.341Z,18.44
2018-08-29T06:17:39.306Z,18.55
2018-08-29T06:18:39.303Z,18.55
2018-08-29T06:19:39.239Z,18.63
2018-08-29T06:20:39.208Z,18.74
2018-08-29T06:21:39.188Z,18.74
2018-08-29T06:22:39.141Z,18.88
2018-08-29T06:23:39.108Z,18.88
2018-08-29T06:24:39.068Z,18.88
2018-08-29T06:25:39.047Z,18.92
2018-08-29T06:26:39.016Z,19.02
2018-08-29T06:27:38.973Z,19.07
2018-08-29T06:28:38.943Z,19.07
2018-08-29T06:29:38.904Z,19.00
2018-08-29T06:30:38.869Z,19.08
2018-08-29T06:31:38.834Z,19.12
2018-08-29T06:32:38.866Z,19.12
2018-08-29T06:33:38.774Z,19.30
2018-08-29T06:34:38.743Z,19.22
2018-08-29T06:35:38.714Z,19.36
2018-08-29T06:36:38.672Z,19.33
2018-08-29T06:37:38.635Z,19.22
2018-08-29T06:38:38.605Z,19.31
2018-08-29T06:39:38.621Z,19.30
2018-08-29T06:40:38.541Z,19.48
2018-08-29T06:41:38.506Z,19.45
2018-08-29T06:42:38.482Z,19.45
2018-08-29T06:43:38.441Z,19.56
2018-08-29T06:44:38.401Z,19.64
2018-08-29T06:45:38.370Z,19.73
2018-08-29T06:46:38.338Z,19.67
2018-08-29T06:47:38.308Z,19.84
2018-08-29T06:48:38.269Z,19.84
2018-08-29T06:49:38.244Z,19.84
2018-08-29T06:50:38.209Z,19.96
2018-08-29T06:51:38.199Z,20.00
2018-08-29T06:52:38.146Z,20.09
2018-08-29T06:53:38.113Z,20.10
2018-08-29T06:54:38.076Z,20.09
2018-08-29T06:55:38.048Z,20.22
2018-08-29T06:56:38.005Z,20.25
2018-08-29T06:57:37.981Z,20.28
2018-08-29T06:58:37.943Z,20.41
2018-08-29T06:59:37.909Z,20.48
2018-08-29T07:00:37.881Z,20.66
2018-08-29T07:01:37.847Z,20.58
2018-08-29T07:02:37.812Z,20.70
2018-08-29T07:03:37.780Z,20.78
2018-08-29T07:04:37.752Z,20.74
2018-08-29T07:05:37.719Z,20.88
2018-08-29T07:06:37.684Z,20.93
2018-08-29T07:07:37.654Z,20.99
2018-08-29T07:08:37.616Z,21.07
2018-08-29T07:09:37.712Z,21.20
2018-08-29T07:10:37.558Z,21.22
2018-08-29T07:11:37.523Z,21.29
2018-08-29T07:12:37.494Z,21.35
2018-08-29T07:13:37.458Z,21.33
2018-08-29T07:14:37.426Z,21.39
2018-08-29T07:15:37.401Z,21.40
2018-08-29T07:16:37.358Z,21.42
2018-08-29T07:17:37.330Z,21.45
2018-08-29T07:18:37.302Z,21.57
2018-08-29T07:19:37.274Z,21.72
2018-08-29T07:20:37.237Z,21.85
2018-08-29T07:21:37.202Z,22.08
2018-08-29T07:22:37.206Z,22.08
2018-08-29T07:23:37.135Z,22.11
2018-08-29T07:24:37.110Z,22.18
2018-08-29T07:25:37.081Z,22.11
2018-08-29T07:26:37.044Z,22.26
2018-08-29T07:27:37.019Z,22.15
2018-08-29T07:28:36.979Z,22.22
2018-08-29T07:29:37.076Z,22.28
2018-08-29T07:30:36.916Z,22.22
2018-08-29T07:31:36.879Z,22.23
2018-08-29T07:32:36.857Z,22.28
2018-08-29T07:33:36.822Z,22.36
2018-08-29T07:34:36.786Z,22.36
2018-08-29T07:35:36.785Z,22.35
2018-08-29T07:36:36.729Z,22.38
2018-08-29T07:37:36.695Z,22.43
2018-08-29T07:38:36.663Z,22.43
2018-08-29T07:39:36.636Z,22.54
2018-08-29T07:40:36.597Z,22.69
2018-08-29T07:41:36.578Z,22.78
2018-08-29T07:42:36.538Z,22.72
2018-08-29T07:43:36.509Z,22.90
2018-08-29T07:44:36.480Z,22.94
2018-08-29T07:45:36.451Z,23.08
2018-08-29T07:46:36.416Z,23.08
2018-08-29T07:47:36.385Z,23.20
2018-08-29T07:48:36.348Z,23.31
2018-08-29T07:49:36.318Z,23.36
2018-08-29T07:50:36.288Z,23.47
2018-08-29T07:51:36.259Z,23.43
2018-08-29T07:52:36.227Z,23.43
2018-08-29T07:53:36.207Z,23.51
2018-08-29T07:54:36.161Z,23.51
2018-08-29T07:55:36.128Z,23.61
2018-08-29T07:56:36.102Z,23.66
2018-08-29T07:57:36.070Z,23.59
2018-08-29T07:58:36.039Z,23.58
2018-08-29T07:59:36.019Z,23.68
2018-08-29T08:00:35.982Z,23.65
2018-08-29T08:01:35.944Z,23.55
2018-08-29T08:02:35.922Z,23.56
2018-08-29T08:03:35.885Z,23.77
2018-08-29T08:04:35.866Z,23.86
2018-08-29T08:05:35.823Z,23.96
2018-08-29T08:06:35.793Z,23.96
2018-08-29T08:07:35.875Z,24.06
2018-08-29T08:08:36.181Z,23.99
2018-08-29T08:09:35.838Z,24.11
2018-08-29T08:10:35.673Z,24.01
2018-08-29T08:11:35.648Z,23.86
2018-08-29T08:12:35.609Z,23.84
2018-08-29T08:13:35.583Z,23.88
2018-08-29T08:14:35.550Z,23.84
2018-08-29T08:15:35.591Z,23.83
2018-08-29T08:16:35.493Z,23.76
2018-08-29T08:17:35.458Z,23.77
2018-08-29T08:18:35.428Z,23.74
2018-08-29T08:19:35.399Z,23.71
2018-08-29T08:20:35.368Z,23.68
2018-08-29T08:21:35.333Z,23.76
2018-08-29T08:22:35.364Z,23.83
2018-08-29T08:23:35.282Z,24.01
2018-08-29T08:24:35.243Z,24.05
2018-08-29T08:25:35.217Z,23.87
2018-08-29T08:26:35.186Z,23.93
2018-08-29T08:27:35.155Z,23.87
2018-08-29T08:28:35.127Z,23.84
2018-08-29T08:29:35.126Z,23.84
2018-08-29T08:30:35.071Z,23.76
2018-08-29T08:31:35.035Z,23.78
2018-08-29T08:32:35.008Z,23.88
2018-08-29T08:33:34.970Z,23.87
2018-08-29T08:34:34.955Z,23.93
2018-08-29T08:35:34.914Z,24.11
2018-08-29T08:36:34.885Z,24.17
2018-08-29T08:37:34.853Z,24.06
2018-08-29T08:38:34.824Z,24.02
2018-08-29T08:39:34.792Z,24.14
2018-08-29T08:40:34.824Z,24.13
2018-08-29T08:41:34.737Z,24.17
2018-08-29T08:42:34.704Z,24.21
2018-08-29T08:43:34.682Z,24.33
2018-08-29T08:44:34.645Z,24.13
2018-08-29T08:45:34.609Z,24.26
2018-08-29T08:46:34.579Z,24.18
2018-08-29T08:47:34.558Z,24.20
2018-08-29T08:48:34.698Z,24.26
2018-08-29T08:49:34.741Z,24.18
2018-08-29T08:50:34.463Z,24.17
2018-08-29T08:51:34.433Z,23.98
2018-08-29T08:52:34.400Z,24.03
2018-08-29T08:53:34.376Z,24.06
2018-08-29T08:54:34.350Z,24.02
2018-08-29T08:55:34.313Z,24.01
2018-08-29T08:56:34.278Z,24.06
2018-08-29T08:57:34.246Z,24.01
2018-08-29T08:58:34.216Z,23.86
2018-08-29T08:59:34.222Z,23.84
2018-08-29T09:00:34.160Z,23.83
2018-08-29T09:01:34.140Z,23.87
2018-08-29T09:02:34.108Z,23.84
2018-08-29T09:03:34.079Z,23.91
2018-08-29T09:04:34.039Z,23.84
2018-08-29T09:05:34.007Z,23.69
2018-08-29T09:06:33.984Z,23.63
2018-08-29T09:07:33.970Z,23.48
2018-08-29T09:08:33.919Z,23.48
2018-08-29T09:09:33.906Z,23.43
2018-08-29T09:10:33.855Z,23.39
2018-08-29T09:11:33.828Z,23.43
2018-08-29T09:12:33.798Z,23.40
2018-08-29T09:13:33.771Z,23.47
2018-08-29T09:14:33.752Z,23.58
2018-08-29T09:15:33.714Z,23.84
2018-08-29T09:16:33.677Z,23.87
2018-08-29T09:17:33.644Z,24.01
2018-08-29T09:18:33.619Z,23.95
2018-08-29T09:19:33.592Z,24.03
2018-08-29T09:20:33.556Z,24.17
2018-08-29T09:21:33.533Z,24.35
2018-08-29T09:22:33.501Z,24.17
2018-08-29T09:23:33.474Z,24.06
2018-08-29T09:24:33.439Z,24.02
2018-08-29T09:25:33.405Z,23.96
2018-08-29T09:26:33.380Z,23.86
2018-08-29T09:27:33.347Z,23.91
2018-08-29T09:28:33.387Z,23.91
2018-08-29T09:29:33.289Z,23.96
2018-08-29T09:30:33.256Z,24.01
2018-08-29T09:31:33.229Z,24.18
2018-08-29T09:32:33.202Z,24.18
2018-08-29T09:33:33.171Z,24.28
2018-08-29T09:34:33.140Z,24.16
2018-08-29T09:35:33.109Z,24.24
2018-08-29T09:36:33.074Z,24.28
2018-08-29T09:37:33.045Z,24.26
2018-08-29T09:38:33.015Z,24.16
2018-08-29T09:39:32.985Z,24.16
2018-08-29T09:40:32.958Z,24.18
2018-08-29T09:41:32.933Z,24.14
2018-08-29T09:42:32.893Z,24.29
2018-08-29T09:43:32.867Z,24.29
2018-08-29T09:44:32.837Z,24.36
2018-08-29T09:45:32.810Z,24.35
2018-08-29T09:46:32.798Z,24.30
2018-08-29T09:47:32.752Z,24.33
2018-08-29T09:48:32.821Z,24.42
2018-08-29T09:49:32.684Z,24.54
2018-08-29T09:50:32.661Z,24.57
2018-08-29T09:51:32.629Z,24.57
2018-08-29T09:52:32.600Z,24.57
2018-08-29T09:53:32.574Z,24.58
2018-08-29T09:54:32.543Z,24.54
2018-08-29T09:55:32.513Z,24.57
2018-08-29T09:56:32.483Z,24.66
2018-08-29T09:57:32.446Z,24.68
2018-08-29T09:58:32.428Z,24.80
2018-08-29T09:59:32.395Z,24.88
2018-08-29T10:00:32.365Z,24.86
2018-08-29T10:01:32.329Z,25.06
2018-08-29T10:02:32.300Z,24.98
2018-08-29T10:03:32.286Z,25.13
2018-08-29T10:04:32.301Z,25.04
2018-08-29T10:05:32.220Z,25.16
2018-08-29T10:06:32.191Z,25.11
2018-08-29T10:21:05.845Z,25.53
2018-08-29T10:22:05.843Z,25.59
2018-08-29T10:23:05.232Z,25.69
2018-08-29T10:24:05.194Z,25.65
2018-08-29T10:25:05.166Z,25.55
2018-08-29T10:26:05.132Z,25.63
2018-08-29T10:27:05.095Z,25.62
2018-08-29T10:28:05.069Z,25.70
2018-08-29T10:29:05.032Z,25.68
2018-08-29T10:30:05.001Z,25.58
2018-08-29T10:31:04.974Z,25.65
2018-08-29T10:32:04.946Z,25.53
2018-08-29T10:33:04.912Z,25.54
2018-08-29T10:34:04.883Z,25.59
2018-08-29T10:35:04.847Z,25.54
2018-08-29T10:36:04.834Z,25.58
2018-08-29T10:37:04.792Z,25.50
2018-08-29T10:38:04.774Z,25.59
2018-08-29T10:39:04.729Z,25.55
2018-08-29T10:40:04.700Z,25.59
2018-08-29T10:41:04.669Z,25.69
2018-08-29T10:42:04.637Z,25.65
2018-08-29T10:43:04.613Z,25.65
2018-08-29T10:44:04.583Z,25.77
2018-08-29T10:45:04.589Z,25.84
2018-08-29T10:46:04.539Z,25.83
2018-08-29T10:47:04.508Z,25.87
2018-08-29T10:48:04.463Z,25.81
2018-08-29T10:49:04.433Z,25.95
2018-08-29T10:50:04.402Z,26.06
2018-08-29T10:51:04.380Z,26.05
2018-08-29T10:52:04.347Z,25.99
2018-08-29T10:53:04.329Z,25.96
2018-08-29T10:54:04.288Z,26.02
2018-08-29T10:55:04.296Z,26.13
2018-08-29T10:56:04.232Z,26.16
2018-08-29T10:57:04.204Z,26.15
2018-08-29T10:58:04.175Z,26.15
2018-08-29T10:59:04.139Z,26.25
2018-08-29T11:00:04.113Z,26.18
2018-08-29T11:01:04.089Z,26.18
2018-08-29T11:02:04.054Z,26.13
2018-08-29T11:03:04.031Z,26.23
2018-08-29T11:04:04.000Z,26.23
2018-08-29T11:05:03.972Z,26.40
2018-08-29T11:06:03.947Z,26.44
2018-08-29T11:07:03.910Z,26.34
2018-08-29T11:08:03.883Z,26.22
2018-08-29T11:09:03.856Z,26.16
2018-08-29T11:10:03.833Z,26.06
2018-08-29T11:11:03.797Z,25.96
2018-08-29T11:12:03.768Z,25.91
2018-08-29T11:13:03.743Z,25.88
2018-08-29T11:14:03.711Z,25.73
2018-08-29T11:15:03.687Z,25.78
2018-08-29T11:16:03.666Z,25.81
2018-08-29T11:17:03.630Z,25.81
2018-08-29T11:18:03.598Z,25.91
2018-08-29T11:19:03.570Z,25.93
2018-08-29T11:20:03.537Z,25.83
2018-08-29T11:21:03.510Z,25.83
2018-08-29T11:22:03.510Z,25.90
2018-08-29T11:23:03.454Z,25.88
2018-08-29T11:24:03.433Z,25.96
2018-08-29T11:25:03.394Z,25.96
2018-08-29T11:26:03.370Z,25.96
2018-08-29T11:27:03.341Z,26.00
2018-08-29T11:28:03.381Z,25.98
2018-08-29T11:29:03.283Z,25.90
2018-08-29T11:30:03.254Z,25.96
2018-08-29T11:31:03.223Z,25.98
2018-08-29T11:32:03.201Z,25.98
2018-08-29T11:33:03.163Z,25.96
2018-08-29T11:34:03.142Z,25.99
2018-08-29T11:35:03.110Z,26.07
2018-08-29T11:36:03.082Z,26.03
2018-08-29T11:37:03.054Z,26.18
2018-08-29T11:38:03.024Z,26.13
2018-08-29T11:39:02.995Z,26.05
2018-08-29T11:40:02.997Z,26.10
2018-08-29T11:41:02.942Z,26.22
2018-08-29T11:42:02.933Z,26.29
2018-08-29T11:43:03.091Z,26.41
2018-08-29T11:44:02.849Z,26.45
2018-08-29T11:45:02.832Z,26.48
2018-08-29T11:46:02.795Z,26.53
2018-08-29T11:47:02.765Z,26.66
2018-08-29T11:48:02.739Z,26.73
2018-08-29T11:49:02.710Z,26.71
2018-08-29T11:50:02.684Z,26.77
2018-08-29T11:51:02.655Z,26.71
2018-08-29T11:52:02.624Z,26.78
2018-08-29T11:53:02.593Z,26.78
2018-08-29T11:54:02.564Z,26.84
2018-08-29T11:55:02.563Z,26.83
2018-08-29T11:56:02.510Z,26.70
2018-08-29T11:57:02.478Z,26.68
2018-08-29T11:58:02.452Z,26.71
2018-08-29T11:59:02.423Z,26.74
2018-08-29T12:00:02.397Z,26.77
2018-08-29T12:01:02.435Z,26.68
2018-08-29T12:02:02.357Z,26.77
2018-08-29T12:03:02.309Z,26.73
2018-08-29T12:04:02.283Z,26.77
2018-08-29T12:05:02.250Z,26.80
2018-08-29T12:06:02.232Z,26.65
2018-08-29T12:07:02.205Z,26.74
2018-08-29T12:08:02.184Z,26.84
2018-08-29T12:09:02.149Z,26.78
2018-08-29T12:10:02.111Z,26.88
2018-08-29T12:11:02.081Z,26.81
2018-08-29T12:12:02.060Z,26.95
2018-08-29T12:13:02.032Z,27.00
2018-08-29T12:14:02.006Z,27.05
2018-08-29T12:15:01.976Z,27.05
2018-08-29T12:16:01.981Z,26.99
2018-08-29T12:17:01.910Z,26.92
2018-08-29T12:18:01.885Z,26.95
2018-08-29T12:19:01.895Z,26.96
2018-08-29T12:20:01.923Z,26.97
2018-08-29T12:21:01.892Z,27.00
2018-08-29T12:22:01.773Z,26.99
2018-08-29T12:23:01.741Z,26.92
2018-08-29T12:24:01.713Z,26.93
2018-08-29T12:25:01.685Z,26.95
2018-08-29T12:26:01.696Z,26.99
2018-08-29T12:27:01.630Z,26.92
2018-08-29T12:28:01.604Z,26.81
2018-08-29T12:29:01.573Z,26.93
2018-08-29T12:30:01.546Z,26.95
2018-08-29T12:31:01.552Z,26.90
2018-08-29T12:32:01.492Z,26.97
2018-08-29T12:33:01.465Z,26.96
2018-08-29T12:34:01.436Z,26.96
2018-08-29T12:35:01.403Z,26.95
2018-08-29T12:36:01.372Z,26.89
2018-08-29T12:37:01.345Z,26.97
2018-08-29T12:38:01.320Z,26.97
2018-08-29T12:39:01.293Z,26.95
2018-08-29T12:40:01.271Z,26.90
2018-08-29T12:41:01.239Z,26.85
2018-08-29T12:42:01.209Z,26.83
2018-08-29T12:43:01.177Z,26.75
2018-08-29T12:44:01.148Z,26.78
2018-08-29T12:45:01.130Z,26.71
2018-08-29T12:46:01.095Z,26.78
2018-08-29T12:47:01.062Z,26.71
2018-08-29T12:48:01.036Z,26.65
2018-08-29T12:49:01.011Z,26.63
2018-08-29T12:50:01.048Z,26.63
2018-08-29T12:51:00.953Z,26.52
2018-08-29T12:52:00.929Z,26.58
2018-08-29T12:53:00.904Z,26.43
2018-08-29T12:54:00.872Z,26.45
2018-08-29T12:55:00.838Z,26.43
2018-08-29T12:56:00.823Z,26.25
2018-08-29T12:57:00.783Z,26.25
2018-08-29T12:58:00.756Z,26.22
2018-08-29T12:59:00.733Z,26.18
2018-08-29T13:00:00.707Z,26.05
2018-08-29T13:01:00.670Z,25.99
2018-08-29T13:02:00.682Z,25.98
2018-08-29T13:03:00.622Z,25.93
2018-08-29T13:04:00.594Z,25.78
2018-08-29T13:05:00.565Z,25.70
2018-08-29T13:06:00.531Z,25.47
2018-08-29T13:07:00.504Z,25.41
2018-08-29T13:08:00.470Z,25.14
2018-08-29T13:09:00.440Z,24.70
2018-08-29T13:10:00.414Z,24.50
2018-08-29T13:11:00.393Z,24.39
2018-08-29T13:12:00.359Z,24.17
2018-08-29T13:13:00.335Z,24.13
2018-08-29T13:14:00.300Z,23.91
2018-08-29T13:15:00.268Z,23.78
2018-08-29T13:16:00.242Z,23.63
2018-08-29T13:17:00.214Z,23.43
2018-08-29T13:18:00.183Z,23.25